Time;durP1;ratioP1;P1;durP2;ratioP2;P2;SDS_P1;SDS_P2;PMS_P1;PMS_P2;Temp;Humidity;BMP_temperature;BMP_pressure;BME280_temperature;BME280_humidity;BME280_pressure;Samples;Min_cycle;Max_cycle;Signal;HPM_P1;HPM_P2
2022/06/26 00:02:04;;;;;;;20.38;16.50;;;;;;;-141.50;100.00;63355.56;5076165;28;20467;-82
2022/06/26 00:04:30;;;;;;;19.10;15.60;;;;;;;-141.50;100.00;63355.56;5080711;28;20113;-79
2022/06/26 00:06:59;;;;;;;22.70;15.50;;;;;;;-141.50;100.00;63355.56;5087720;28;20100;-81
2022/06/26 00:09:28;;;;;;;17.90;14.60;;;;;;;-141.50;100.00;63355.56;5078974;28;20194;-83
2022/06/26 00:11:55;;;;;;;20.98;15.55;;;;;;;-141.50;100.00;63355.56;5060137;28;20053;-82
2022/06/26 00:14:21;;;;;;;19.05;16.30;;;;;;;-141.50;100.00;63355.56;5076904;28;20132;-81
2022/06/26 00:16:49;;;;;;;20.42;16.88;;;;;;;-141.50;100.00;63355.56;5077386;28;20049;-82
2022/06/26 00:19:16;;;;;;;20.02;17.55;;;;;;;-141.50;100.00;63355.56;5085148;28;20132;-83
2022/06/26 00:21:42;;;;;;;26.63;17.65;;;;;;;-141.50;100.00;63355.56;5074789;28;20095;-79
2022/06/26 00:24:09;;;;;;;23.45;18.27;;;;;;;-141.50;100.00;63355.56;5073295;28;20098;-81
2022/06/26 00:26:36;;;;;;;24.58;17.27;;;;;;;-141.50;100.00;63355.56;5073151;28;20131;-81
2022/06/26 00:29:02;;;;;;;20.33;16.10;;;;;;;-141.50;100.00;63355.56;5074197;28;20048;-80
2022/06/26 00:31:29;;;;;;;24.75;16.48;;;;;;;-141.50;100.00;63355.56;5075703;28;20050;-82
2022/06/26 00:33:56;;;;;;;20.10;15.57;;;;;;;-141.50;100.00;63355.56;5075333;28;20440;-81
2022/06/26 00:36:22;;;;;;;20.05;16.02;;;;;;;-141.50;100.00;63355.56;5074997;28;20139;-81
2022/06/26 00:38:49;;;;;;;19.90;15.32;;;;;;;-141.50;100.00;63355.56;5055874;28;20692;-81
2022/06/26 00:41:15;;;;;;;19.10;14.75;;;;;;;-141.50;100.00;63355.56;5072650;28;20078;-82
2022/06/26 00:43:42;;;;;;;21.65;15.60;;;;;;;-141.50;100.00;63355.56;5074947;28;20072;-79
2022/06/26 00:46:08;;;;;;;22.63;15.45;;;;;;;-141.50;100.00;63355.56;5072944;28;20203;-80
2022/06/26 00:48:35;;;;;;;23.92;15.15;;;;;;;-141.50;100.00;63355.56;5073916;28;20045;-82
2022/06/26 00:51:03;;;;;;;21.40;15.70;;;;;;;-141.50;100.00;63355.56;5074211;28;20048;-82
2022/06/26 00:53:29;;;;;;;25.50;15.75;;;;;;;-141.50;100.00;63355.56;5037256;28;20056;-81
2022/06/26 00:55:57;;;;;;;18.75;15.98;;;;;;;-141.50;100.00;63355.56;5037816;28;20513;-80
2022/06/26 00:58:24;;;;;;;23.13;15.52;;;;;;;-141.50;100.00;63355.56;5071012;28;20072;-79
2022/06/26 01:00:50;;;;;;;18.98;15.68;;;;;;;-141.50;100.00;63355.56;5056392;28;20047;-80
2022/06/26 01:03:17;;;;;;;27.85;15.50;;;;;;;-141.50;100.00;63355.56;5073926;28;20040;-80
2022/06/26 01:05:44;;;;;;;21.55;14.77;;;;;;;-141.50;100.00;63355.56;5049524;28;20056;-79
2022/06/26 01:08:10;;;;;;;21.27;16.52;;;;;;;-141.50;100.00;63355.56;5050977;28;20113;-80
2022/06/26 01:10:38;;;;;;;22.75;15.88;;;;;;;-141.50;100.00;63355.56;5065867;28;20442;-81
2022/06/26 01:13:06;;;;;;;20.13;14.77;;;;;;;-141.50;100.00;63355.56;5039345;28;20385;-82
2022/06/26 01:15:34;;;;;;;26.70;15.52;;;;;;;-141.50;100.00;63355.56;5056518;28;20111;-82
2022/06/26 01:18:00;;;;;;;20.90;14.65;;;;;;;-141.50;100.00;63355.56;5065400;28;20059;-82
2022/06/26 01:20:27;;;;;;;19.42;13.75;;;;;;;-141.50;100.00;63355.56;5073233;28;20049;-82
2022/06/26 01:23:05;;;;;;;23.02;14.75;;;;;;;-141.50;100.00;63355.56;5055800;28;20181;-82
2022/06/26 01:25:47;;;;;;;20.00;13.63;;;;;;;-141.50;100.00;63355.56;5057148;28;20056;-83
2022/06/26 01:28:14;;;;;;;20.25;13.10;;;;;;;-141.50;100.00;63355.56;5055445;28;20129;-82
2022/06/26 01:30:41;;;;;;;23.70;13.77;;;;;;;-141.50;100.00;63355.56;5056212;28;20132;-82
2022/06/26 01:33:08;;;;;;;25.95;13.60;;;;;;;-141.50;100.00;63355.56;5053678;28;20045;-82
2022/06/26 01:35:35;;;;;;;22.85;12.38;;;;;;;-141.50;100.00;63355.56;5053791;28;20091;-82
2022/06/26 01:38:13;;;;;;;31.05;12.63;;;;;;;-141.50;100.00;63355.56;5054865;28;20080;-81
2022/06/26 01:40:40;;;;;;;28.42;13.57;;;;;;;-141.50;100.00;63355.56;5054896;28;20490;-82
2022/06/26 01:43:08;;;;;;;23.58;13.15;;;;;;;-141.50;100.00;63355.56;5056590;28;20073;-81
2022/06/26 01:45:45;;;;;;;28.15;13.65;;;;;;;-141.50;100.00;63355.56;5055969;28;20434;-80
2022/06/26 01:48:13;;;;;;;27.70;14.95;;;;;;;-141.50;100.00;63355.56;5054454;28;20045;-79
2022/06/26 01:50:39;;;;;;;30.33;14.05;;;;;;;-141.50;100.00;63355.56;5054324;28;20057;-81
2022/06/26 01:53:06;;;;;;;31.88;14.95;;;;;;;-141.50;100.00;63355.56;5065657;28;20124;-80
2022/06/26 01:55:33;;;;;;;31.60;15.13;;;;;;;-141.50;100.00;63355.56;5055054;28;20085;-81
2022/06/26 01:58:01;;;;;;;25.40;15.15;;;;;;;-141.50;100.00;63355.56;5050733;28;20044;-81
2022/06/26 02:00:28;;;;;;;27.13;14.45;;;;;;;-141.50;100.00;63355.56;5049127;28;20450;-80
2022/06/26 02:02:55;;;;;;;24.70;15.20;;;;;;;-141.50;100.00;63355.56;5052259;28;20606;-79
2022/06/26 02:05:22;;;;;;;27.35;15.02;;;;;;;-141.50;100.00;63355.56;5058056;28;20081;-81
2022/06/26 02:07:49;;;;;;;26.50;15.20;;;;;;;-141.50;100.00;63355.56;5053865;28;20049;-81
2022/06/26 02:15:52;;;;;;;26.17;18.35;;;;;;;-141.50;100.00;63355.56;5055876;28;20085;-80
2022/06/26 02:18:19;;;;;;;22.27;17.83;;;;;;;-141.50;100.00;63355.56;5040170;28;20048;-81
2022/06/26 02:20:47;;;;;;;22.70;16.55;;;;;;;-141.50;100.00;63355.56;5081981;28;20080;-80
2022/06/26 02:23:14;;;;;;;29.88;15.65;;;;;;;-141.50;100.00;63355.56;5081373;28;20072;-80
2022/06/26 02:25:41;;;;;;;31.95;16.05;;;;;;;-141.50;100.00;63355.56;5062579;28;20112;-79
2022/06/26 02:28:08;;;;;;;31.15;15.65;;;;;;;-141.50;100.00;63355.56;5079829;28;20105;-80
2022/06/26 02:30:35;;;;;;;23.42;15.75;;;;;;;-141.50;100.00;63355.56;5081152;28;20076;-83
2022/06/26 02:33:03;;;;;;;27.50;15.07;;;;;;;-141.50;100.00;63355.56;5082489;28;20060;-82
2022/06/26 02:35:30;;;;;;;24.60;15.95;;;;;;;-141.50;100.00;63355.56;5078072;28;20076;-83
2022/06/26 02:37:57;;;;;;;27.55;15.80;;;;;;;-141.50;100.00;63355.56;5077238;28;20107;-83
2022/06/26 02:40:25;;;;;;;25.00;15.43;;;;;;;-141.50;100.00;63355.56;5059533;28;20092;-83
2022/06/26 02:42:52;;;;;;;22.58;15.15;;;;;;;-141.50;100.00;63355.56;5055275;28;20048;-82
2022/06/26 02:45:19;;;;;;;20.95;15.63;;;;;;;-141.50;100.00;63355.56;5070226;28;20071;-81
2022/06/26 02:47:46;;;;;;;22.38;16.50;;;;;;;-141.50;100.00;63355.56;5075364;28;20052;-82
2022/06/26 02:50:13;;;;;;;27.52;16.00;;;;;;;-141.50;100.00;63355.56;5072892;28;20080;-81
2022/06/26 02:52:40;;;;;;;25.20;15.48;;;;;;;-141.50;100.00;63355.56;5051641;28;20206;-82
2022/06/26 02:55:08;;;;;;;25.40;14.98;;;;;;;-141.50;100.00;63355.56;5070588;28;20608;-81
2022/06/26 02:57:35;;;;;;;22.55;15.57;;;;;;;-141.50;100.00;63355.56;5070667;28;20044;-81
2022/06/26 03:00:04;;;;;;;24.45;17.98;;;;;;;-141.50;100.00;63355.56;5071714;28;20048;-81
2022/06/26 03:02:32;;;;;;;35.63;17.13;;;;;;;-141.50;100.00;63355.56;5075597;28;20059;-80
2022/06/26 03:04:58;;;;;;;30.65;15.35;;;;;;;-141.50;100.00;63355.56;5075065;28;20084;-81
2022/06/26 03:07:25;;;;;;;41.28;15.70;;;;;;;-141.50;100.00;63355.56;5076343;28;20080;-81
2022/06/26 03:09:51;;;;;;;30.08;15.30;;;;;;;-141.50;100.00;63355.56;5075284;28;20048;-81
2022/06/26 03:12:18;;;;;;;36.08;16.13;;;;;;;-141.50;100.00;63355.56;5076719;28;20429;-81
2022/06/26 03:14:44;;;;;;;37.63;16.45;;;;;;;-141.50;100.00;63355.56;5078001;28;20067;-80
2022/06/26 03:17:11;;;;;;;31.83;16.23;;;;;;;-141.50;100.00;63355.56;5078521;28;20048;-80
2022/06/26 03:19:38;;;;;;;29.38;16.85;;;;;;;-141.50;100.00;63355.56;5083852;28;20045;-80
2022/06/26 03:22:05;;;;;;;35.13;15.82;;;;;;;-141.50;100.00;63355.56;5077306;28;20052;-80
2022/06/26 03:24:32;;;;;;;26.65;15.50;;;;;;;-141.50;100.00;63355.56;5077573;28;20366;-81
2022/06/26 03:26:59;;;;;;;31.92;16.38;;;;;;;-141.50;100.00;63355.56;5059733;28;20104;-80
2022/06/26 03:29:26;;;;;;;26.83;14.90;;;;;;;-141.50;100.00;63355.56;5076669;28;20420;-80
2022/06/26 03:31:52;;;;;;;27.80;15.93;;;;;;;-141.50;100.00;63355.56;5075999;28;20715;-80
2022/06/26 03:34:19;;;;;;;28.02;15.75;;;;;;;-141.50;100.00;63355.56;5056930;28;20056;-80
2022/06/26 03:36:46;;;;;;;27.42;15.43;;;;;;;-141.50;100.00;63355.56;5067086;28;20083;-81
2022/06/26 03:39:12;;;;;;;21.08;14.90;;;;;;;-141.50;100.00;63355.56;5082150;28;20048;-82
2022/06/26 03:41:39;;;;;;;25.10;15.60;;;;;;;-141.50;100.00;63355.56;5079230;28;20056;-82
2022/06/26 03:44:06;;;;;;;19.38;14.85;;;;;;;-141.50;100.00;63355.56;5094266;28;20045;-81
2022/06/26 03:46:33;;;;;;;22.48;14.55;;;;;;;-141.50;100.00;63355.56;5076931;28;20042;-80
2022/06/26 03:49:02;;;;;;;24.63;15.55;;;;;;;-141.50;100.00;63355.56;5089982;28;20052;-79
2022/06/26 03:51:28;;;;;;;21.92;15.75;;;;;;;-141.50;100.00;63355.56;5067738;28;20457;-81
2022/06/26 03:53:55;;;;;;;20.95;15.68;;;;;;;-141.50;100.00;63355.56;5060176;28;20052;-83
2022/06/26 03:56:25;;;;;;;20.88;14.90;;;;;;;-141.50;100.00;63355.56;5070372;28;20083;-81
2022/06/26 03:58:51;;;;;;;28.55;15.65;;;;;;;-141.50;100.00;63355.56;5079807;28;20042;-83
2022/06/26 04:01:18;;;;;;;23.30;14.13;;;;;;;-141.50;100.00;63355.56;5077073;28;20079;-83
2022/06/26 04:03:44;;;;;;;17.63;13.57;;;;;;;-141.50;100.00;63355.56;5060385;28;20110;-81
2022/06/26 04:06:11;;;;;;;19.42;14.45;;;;;;;-141.50;100.00;63355.56;5078657;28;20401;-80
2022/06/26 04:08:37;;;;;;;20.63;14.15;;;;;;;-141.50;100.00;63355.56;5077734;28;20100;-82
2022/06/26 04:11:04;;;;;;;20.08;15.48;;;;;;;-141.50;100.00;63355.56;5078295;28;20084;-81
2022/06/26 04:13:30;;;;;;;20.85;15.10;;;;;;;-141.50;100.00;63355.56;5077676;28;20056;-80
2022/06/26 04:15:58;;;;;;;21.92;15.90;;;;;;;-141.50;100.00;63355.56;5074298;28;20080;-81
2022/06/26 04:18:25;;;;;;;26.00;15.32;;;;;;;-141.50;100.00;63355.56;5080517;28;20138;-81
2022/06/26 04:20:51;;;;;;;18.08;14.93;;;;;;;-141.50;100.00;63355.56;5071985;28;20087;-80
2022/06/26 04:23:18;;;;;;;21.63;14.35;;;;;;;-141.50;100.00;63355.56;5072077;28;20449;-80
2022/06/26 04:25:44;;;;;;;18.95;14.65;;;;;;;-141.50;100.00;63355.56;5072919;28;20505;-81
2022/06/26 04:28:11;;;;;;;18.48;14.75;;;;;;;-141.50;100.00;63355.56;5073748;28;20107;-80
2022/06/26 04:30:38;;;;;;;17.17;14.35;;;;;;;-141.50;100.00;63355.56;5088664;28;20079;-80
2022/06/26 04:33:04;;;;;;;17.58;14.57;;;;;;;-141.50;100.00;63355.56;5083621;28;20049;-82
2022/06/26 04:35:31;;;;;;;15.98;13.90;;;;;;;-141.50;100.00;63355.56;5078962;28;20048;-82
2022/06/26 04:37:58;;;;;;;16.20;13.48;;;;;;;-141.50;100.00;63355.56;5074139;28;20124;-81
2022/06/26 04:40:25;;;;;;;14.77;11.93;;;;;;;-141.50;100.00;63355.56;5053833;28;20052;-81
2022/06/26 04:42:51;;;;;;;14.85;12.25;;;;;;;-141.50;100.00;63355.56;5071623;28;20087;-81
2022/06/26 04:45:20;;;;;;;15.10;11.60;;;;;;;-141.50;100.00;63355.56;5072279;28;20052;-82
2022/06/26 04:47:47;;;;;;;13.98;11.30;;;;;;;-141.50;100.00;63355.56;5054407;28;20048;-80
2022/06/26 04:50:14;;;;;;;15.27;11.07;;;;;;;-141.50;100.00;63355.56;5072872;28;20080;-81
2022/06/26 04:52:49;;;;;;;14.07;10.75;;;;;;;-141.50;100.00;63355.56;5074893;28;20079;-82
2022/06/26 04:55:16;;;;;;;13.48;11.13;;;;;;;-141.50;100.00;63355.56;5063648;28;20053;-82
2022/06/26 04:57:43;;;;;;;11.73;9.63;;;;;;;-141.50;100.00;63355.56;5081300;28;20056;-83
2022/06/26 05:00:12;;;;;;;11.07;9.45;;;;;;;-141.50;100.00;63355.56;5079297;28;20202;-81
2022/06/26 05:02:39;;;;;;;9.68;8.63;;;;;;;-141.50;100.00;63355.56;5071775;28;20087;-81
2022/06/26 05:05:06;;;;;;;13.48;9.52;;;;;;;-141.50;100.00;63355.56;5075102;28;20029;-82
2022/06/26 05:07:33;;;;;;;15.18;9.60;;;;;;;-141.50;100.00;63355.56;5085477;28;20044;-83
2022/06/26 05:10:00;;;;;;;12.82;9.10;;;;;;;-141.50;100.00;63355.56;5061589;28;20059;-82
2022/06/26 05:12:27;;;;;;;9.68;8.60;;;;;;;-141.50;100.00;63355.56;5073818;28;20049;-83
2022/06/26 05:14:54;;;;;;;9.23;8.07;;;;;;;-141.50;100.00;63355.56;5080805;28;20043;-81
2022/06/26 05:17:20;;;;;;;10.25;8.00;;;;;;;-141.50;100.00;63355.56;5082234;28;20032;-81
2022/06/26 05:19:47;;;;;;;10.45;8.20;;;;;;;-141.50;100.00;63355.56;5086414;28;20072;-79
2022/06/26 05:22:14;;;;;;;11.50;8.18;;;;;;;-141.50;100.00;63355.56;5086196;28;20052;-80
2022/06/26 05:24:40;;;;;;;10.23;7.75;;;;;;;-141.50;100.00;63355.56;5086221;28;20063;-81
2022/06/26 05:27:07;;;;;;;8.75;7.45;;;;;;;-141.50;100.00;63355.56;5081922;28;20052;-83
2022/06/26 05:29:43;;;;;;;11.50;7.53;;;;;;;-141.50;100.00;63355.56;5080748;28;20041;-80
2022/06/26 05:32:09;;;;;;;11.80;7.85;;;;;;;-141.50;100.00;63355.56;5079814;28;20052;-82
2022/06/26 05:34:36;;;;;;;7.57;6.68;;;;;;;-141.50;100.00;63355.56;5080875;28;20528;-82
2022/06/26 05:37:03;;;;;;;8.63;6.53;;;;;;;-141.50;100.00;63355.56;5079915;28;20082;-83
2022/06/26 05:39:29;;;;;;;7.03;5.72;;;;;;;-141.50;100.00;63355.56;5061076;28;20129;-83
2022/06/26 05:41:56;;;;;;;8.50;5.78;;;;;;;-141.50;100.00;63355.56;5080638;28;20044;-84
2022/06/26 05:44:28;;;;;;;8.35;5.15;;;;;;;-141.50;100.00;63355.56;5057358;28;20072;-81
2022/06/26 05:46:54;;;;;;;7.00;4.60;;;;;;;-141.50;100.00;63355.56;5070341;28;20045;-81
2022/06/26 05:49:21;;;;;;;8.10;4.40;;;;;;;-141.50;100.00;63355.56;5058245;28;20045;-83
2022/06/26 05:51:47;;;;;;;6.80;4.00;;;;;;;-141.50;100.00;63355.56;5058455;28;20076;-81
2022/06/26 05:54:14;;;;;;;8.23;3.80;;;;;;;-141.50;100.00;63355.56;5050467;28;20068;-80
2022/06/26 05:56:41;;;;;;;4.88;3.28;;;;;;;-141.50;100.00;63355.56;5048911;28;20084;-80
2022/06/26 05:59:08;;;;;;;4.13;2.85;;;;;;;-141.50;100.00;63355.56;5061063;28;20114;-80
2022/06/26 06:01:34;;;;;;;7.40;3.25;;;;;;;-141.50;100.00;63355.56;5069044;28;20167;-82
2022/06/26 06:04:01;;;;;;;5.78;2.80;;;;;;;-141.50;100.00;63355.56;5068556;28;20075;-81
2022/06/26 06:06:28;;;;;;;2.90;2.63;;;;;;;-141.50;100.00;63355.56;5066730;28;20682;-77
2022/06/26 06:08:54;;;;;;;6.50;2.55;;;;;;;-141.50;100.00;63355.56;5065502;28;20412;-78
2022/06/26 06:11:21;;;;;;;4.80;2.80;;;;;;;-141.50;100.00;63355.56;5067933;28;20057;-78
2022/06/26 06:13:47;;;;;;;4.53;2.80;;;;;;;-141.50;100.00;63355.56;5071484;28;20082;-77
2022/06/26 06:16:14;;;;;;;3.40;2.72;;;;;;;-141.50;100.00;63355.56;5069781;28;20076;-76
2022/06/26 06:18:41;;;;;;;4.15;2.50;;;;;;;-141.50;100.00;63355.56;5053977;28;20044;-78
2022/06/26 06:21:10;;;;;;;3.30;2.22;;;;;;;-141.50;100.00;63355.56;5047061;28;20057;-77
2022/06/26 06:23:37;;;;;;;4.43;2.55;;;;;;;-141.50;100.00;63355.56;5046947;28;20064;-78
2022/06/26 06:26:04;;;;;;;2.72;2.20;;;;;;;-141.50;100.00;63355.56;5071952;28;20048;-77
2022/06/26 06:28:31;;;;;;;3.78;2.15;;;;;;;-141.50;100.00;63355.56;5053430;28;20067;-78
2022/06/26 06:30:57;;;;;;;3.22;2.00;;;;;;;-141.50;100.00;63355.56;5058059;28;20064;-77
2022/06/26 06:33:24;;;;;;;3.72;2.10;;;;;;;-141.50;100.00;63355.56;5050254;28;20229;-77
2022/06/26 06:35:54;;;;;;;6.90;2.45;;;;;;;-141.50;100.00;63355.56;5076014;28;20053;-78
2022/06/26 06:38:25;;;;;;;3.67;2.22;;;;;;;-141.50;100.00;63355.56;5092044;28;20028;-77
2022/06/26 06:40:52;;;;;;;3.70;2.20;;;;;;;-141.50;100.00;63355.56;5081219;28;20064;-78
2022/06/26 06:43:18;;;;;;;2.50;1.90;;;;;;;-141.50;100.00;63355.56;5037278;28;20531;-78
2022/06/26 06:45:45;;;;;;;3.67;2.05;;;;;;;-141.50;100.00;63355.56;5036683;28;20085;-77
2022/06/26 06:48:12;;;;;;;2.53;2.10;;;;;;;-141.50;100.00;63355.56;5046219;28;20099;-78
2022/06/26 06:50:39;;;;;;;3.78;2.10;;;;;;;-141.50;100.00;63355.56;5070544;28;20056;-77
2022/06/26 06:53:06;;;;;;;3.80;2.00;;;;;;;-141.50;100.00;63355.56;5057091;28;20072;-77
2022/06/26 06:55:32;;;;;;;3.45;2.10;;;;;;;-141.50;100.00;63355.56;5061574;28;20513;-77
2022/06/26 06:57:59;;;;;;;2.80;1.90;;;;;;;-141.50;100.00;63355.56;5063411;28;20529;-77
2022/06/26 07:00:26;;;;;;;2.97;1.58;;;;;;;-141.50;100.00;63355.56;5061442;28;20040;-77
2022/06/26 07:02:52;;;;;;;2.92;1.92;;;;;;;-141.50;100.00;63355.56;5043081;28;20080;-78
2022/06/26 07:05:19;;;;;;;3.03;1.40;;;;;;;-141.50;100.00;63355.56;5043878;28;20470;-77
2022/06/26 07:07:46;;;;;;;2.28;1.95;;;;;;;-141.50;100.00;63355.56;5043183;28;20060;-77
2022/06/26 07:10:13;;;;;;;3.40;1.85;;;;;;;-141.50;100.00;63355.56;5059559;28;20137;-78
2022/06/26 07:12:40;;;;;;;7.70;1.40;;;;;;;-141.50;100.00;63355.56;5051676;28;20147;-77
2022/06/26 07:15:07;;;;;;;4.40;1.50;;;;;;;-141.50;100.00;63355.56;5066706;28;20056;-78
2022/06/26 07:17:34;;;;;;;4.65;1.50;;;;;;;-141.50;100.00;63355.56;5074387;28;20051;-78
2022/06/26 07:20:01;;;;;;;1.90;1.50;;;;;;;-141.50;100.00;63355.56;5074872;28;20053;-78
2022/06/26 07:22:28;;;;;;;2.20;1.40;;;;;;;-141.50;100.00;63355.56;5070903;28;20060;-81
2022/06/26 07:24:54;;;;;;;3.15;1.50;;;;;;;-141.50;100.00;63355.56;5071600;28;20156;-77
2022/06/26 07:27:22;;;;;;;1.63;1.50;;;;;;;-141.50;100.00;63355.56;5054609;28;20057;-79
2022/06/26 07:29:48;;;;;;;2.25;1.50;;;;;;;-141.50;100.00;63355.56;5066785;28;20140;-78
2022/06/26 07:32:15;;;;;;;3.00;1.30;;;;;;;-141.50;100.00;63355.56;5066334;28;20080;-78
2022/06/26 07:34:42;;;;;;;4.55;1.65;;;;;;;-141.50;100.00;63355.56;5067248;28;20080;-79
2022/06/26 07:37:08;;;;;;;2.55;1.48;;;;;;;-141.50;100.00;63355.56;5052190;28;20139;-80
2022/06/26 07:39:35;;;;;;;4.70;1.50;;;;;;;-141.50;100.00;63355.56;5050073;28;20135;-78
2022/06/26 07:42:01;;;;;;;4.13;1.33;;;;;;;-141.50;100.00;63355.56;5053031;28;20380;-79
2022/06/26 07:44:28;;;;;;;3.42;1.52;;;;;;;-141.50;100.00;63355.56;5077022;28;20056;-83
2022/06/26 07:46:57;;;;;;;3.42;1.33;;;;;;;-141.50;100.00;63355.56;5057875;28;20059;-81
2022/06/26 07:49:23;;;;;;;2.33;1.27;;;;;;;-141.50;100.00;63355.56;5077302;28;20116;-78
2022/06/26 07:51:50;;;;;;;1.98;1.30;;;;;;;-141.50;100.00;63355.56;5062542;28;20112;-79
2022/06/26 07:54:17;;;;;;;2.10;1.20;;;;;;;-141.50;100.00;63355.56;5079236;28;20045;-79
2022/06/26 07:56:44;;;;;;;2.30;1.17;;;;;;;-141.50;100.00;63355.56;5079214;28;20476;-81
2022/06/26 07:59:10;;;;;;;2.92;1.42;;;;;;;-141.50;100.00;63355.56;5082055;28;20048;-79
2022/06/26 08:01:37;;;;;;;2.85;1.20;;;;;;;-141.50;100.00;63355.56;5085667;28;20083;-80
2022/06/26 08:04:03;;;;;;;1.75;1.40;;;;;;;-141.50;100.00;63355.56;5088981;28;20060;-78
2022/06/26 08:06:30;;;;;;;3.00;1.10;;;;;;;-141.50;100.00;63355.56;5056789;28;20053;-77
2022/06/26 08:08:57;;;;;;;2.15;1.15;;;;;;;-141.50;100.00;63355.56;5055442;28;20098;-77
2022/06/26 08:11:24;;;;;;;3.13;1.30;;;;;;;-141.50;100.00;63355.56;5077790;28;20203;-78
2022/06/26 08:13:51;;;;;;;2.35;1.23;;;;;;;-141.50;100.00;63355.56;5098537;28;20055;-78
2022/06/26 08:16:19;;;;;;;2.47;1.20;;;;;;;-141.50;100.00;63355.56;5075702;28;20743;-78
2022/06/26 08:18:46;;;;;;;1.50;1.00;;;;;;;-141.50;100.00;63355.56;5062478;28;20122;-79
2022/06/26 08:24:05;;;;;;;4.30;1.10;;;;;;;-141.50;100.00;63355.56;5050051;28;20556;-77
2022/06/26 08:26:37;;;;;;;2.63;1.20;;;;;;;-141.50;100.00;63355.56;5067982;28;20048;-77
2022/06/26 08:29:04;;;;;;;1.80;1.27;;;;;;;-141.50;100.00;63355.56;5068927;28;20196;-78
2022/06/26 08:31:30;;;;;;;3.08;1.17;;;;;;;-141.50;100.00;63355.56;5067497;28;20084;-78
2022/06/26 08:33:57;;;;;;;5.88;1.40;;;;;;;-141.50;100.00;63355.56;5070375;28;20108;-81
2022/06/26 08:36:24;;;;;;;2.38;1.13;;;;;;;-141.50;100.00;63355.56;5073960;28;20078;-81
2022/06/26 08:39:11;;;;;;;2.35;1.40;;;;;;;-141.50;100.00;63355.56;5073886;28;20071;-85
2022/06/26 08:41:42;;;;;;;2.15;1.20;;;;;;;-141.50;100.00;63355.56;5072911;28;20057;-85
2022/06/26 08:44:10;;;;;;;2.28;1.08;;;;;;;-141.50;100.00;63355.56;5070853;28;20056;-86
2022/06/26 08:46:38;;;;;;;2.17;1.17;;;;;;;-141.50;100.00;63355.56;5071705;28;20087;-86
2022/06/26 08:49:23;;;;;;;2.78;1.10;;;;;;;-141.50;100.00;63355.56;5050869;28;20048;-87
2022/06/26 08:51:57;;;;;;;2.42;1.30;;;;;;;-141.50;100.00;63355.56;5054239;28;20064;-84
2022/06/26 08:54:26;;;;;;;4.18;1.13;;;;;;;-141.50;100.00;63355.56;5055192;28;20083;-84
2022/06/26 08:56:55;;;;;;;2.22;1.20;;;;;;;-141.50;100.00;63355.56;5061941;28;20473;-86
2022/06/26 08:59:31;;;;;;;2.47;1.10;;;;;;;-141.50;100.00;63355.56;5077806;28;20099;-89
2022/06/26 09:01:58;;;;;;;1.42;1.10;;;;;;;-141.50;100.00;63355.56;5090672;28;20033;-83
2022/06/26 09:04:25;;;;;;;2.92;1.30;;;;;;;-141.50;100.00;63355.56;5091036;28;20079;-80
2022/06/26 09:06:52;;;;;;;1.50;1.20;;;;;;;-141.50;100.00;63355.56;5088555;28;20100;-84
2022/06/26 09:09:24;;;;;;;3.08;1.40;;;;;;;-141.50;100.00;63355.56;5075509;28;20068;-81
2022/06/26 09:11:53;;;;;;;9.43;1.45;;;;;;;-141.50;100.00;63355.56;5069471;28;20086;-83
2022/06/26 09:14:20;;;;;;;3.42;1.20;;;;;;;-141.50;100.00;63355.56;5049798;28;20052;-79
2022/06/26 09:16:51;;;;;;;8.85;1.45;;;;;;;-141.50;100.00;63355.56;5075973;28;20040;-81
2022/06/26 09:19:23;;;;;;;6.22;1.40;;;;;;;-141.50;100.00;63355.56;5080414;28;20044;-79
2022/06/26 09:21:51;;;;;;;3.65;1.40;;;;;;;-141.50;100.00;63355.56;5059712;28;20079;-82
2022/06/26 09:24:21;;;;;;;3.63;1.20;;;;;;;-141.50;100.00;63355.56;5075519;28;20059;-78
2022/06/26 09:27:21;;;;;;;3.08;1.10;;;;;;;-141.50;100.00;63355.56;5067217;28;20067;-78
2022/06/26 09:29:50;;;;;;;5.30;1.30;;;;;;;-141.50;100.00;63355.56;5042898;28;20064;-77
2022/06/26 09:32:17;;;;;;;2.20;1.20;;;;;;;-141.50;100.00;63355.56;5077252;28;20072;-78
2022/06/26 09:34:49;;;;;;;3.47;1.13;;;;;;;-141.50;100.00;63355.56;5064709;28;20116;-80
2022/06/26 09:37:16;;;;;;;7.90;1.65;;;;;;;-141.50;100.00;63355.56;5065925;28;20033;-80
2022/06/26 09:40:04;;;;;;;3.08;1.23;;;;;;;-141.50;100.00;63355.56;5065059;28;20053;-79
2022/06/26 09:42:34;;;;;;;3.90;1.10;;;;;;;-141.50;100.00;63355.56;5078321;28;20052;-78
2022/06/26 09:45:02;;;;;;;5.15;1.63;;;;;;;-141.50;100.00;63355.56;5076829;28;20099;-83
2022/06/26 09:47:31;;;;;;;6.15;1.55;;;;;;;-141.50;100.00;63355.56;5081793;28;20037;-83
2022/06/26 09:49:59;;;;;;;13.90;1.58;;;;;;;-141.50;100.00;63355.56;5074709;28;20053;-83
2022/06/26 09:52:29;;;;;;;2.38;1.27;;;;;;;-141.50;100.00;63355.56;5077684;28;20066;-86
2022/06/26 09:54:58;;;;;;;3.78;1.20;;;;;;;-141.50;100.00;63355.56;5077975;28;20086;-81
2022/06/26 09:57:26;;;;;;;3.60;1.05;;;;;;;-141.50;100.00;63355.56;5072814;28;20053;-81
2022/06/26 09:59:53;;;;;;;1.65;1.10;;;;;;;-141.50;100.00;63355.56;5071314;28;20051;-81
2022/06/26 10:08:04;;;;;;;7.10;1.52;;;;;;;-141.50;100.00;63355.56;5079513;28;20060;-82
2022/06/26 10:10:33;;;;;;;4.85;1.48;;;;;;;-141.50;100.00;63355.56;5086590;28;20060;-82
2022/06/26 10:13:04;;;;;;;2.97;1.10;;;;;;;-141.50;100.00;63355.56;5092048;28;20056;-82
2022/06/26 10:15:40;;;;;;;3.35;1.10;;;;;;;-141.50;100.00;63355.56;5073289;28;20064;-81
2022/06/26 10:18:20;;;;;;;3.30;1.40;;;;;;;-141.50;100.00;63355.56;5089157;28;20242;-79
2022/06/26 10:20:48;;;;;;;2.40;1.00;;;;;;;-141.50;100.00;63355.56;5061676;28;20141;-82
2022/06/26 10:23:36;;;;;;;1.30;1.10;;;;;;;-141.50;100.00;63355.56;5058476;28;20551;-84
2022/06/26 10:26:18;;;;;;;2.83;0.98;;;;;;;-141.50;100.00;63355.56;5054501;28;20291;-82
2022/06/26 10:29:00;;;;;;;2.60;1.10;;;;;;;-141.50;100.00;63355.56;5064099;28;20048;-81
2022/06/26 10:31:50;;;;;;;3.85;1.27;;;;;;;-141.50;100.00;63355.56;5070792;28;20083;-84
2022/06/26 10:34:24;;;;;;;1.30;1.20;;;;;;;-141.50;100.00;63355.56;5069241;28;20131;-84
2022/06/26 10:37:03;;;;;;;1.60;1.00;;;;;;;-141.50;100.00;63355.56;5053213;28;20084;-81
2022/06/26 10:39:49;;;;;;;1.80;1.02;;;;;;;-141.50;100.00;63355.56;5066001;28;20068;-82
2022/06/26 10:45:16;;;;;;;3.72;1.10;;;;;;;-141.50;100.00;63355.56;5074119;28;20187;-82
2022/06/26 10:47:50;;;;;;;4.93;1.10;;;;;;;-141.50;100.00;63355.56;5054885;28;20167;-83
2022/06/26 10:50:55;;;;;;;2.03;1.10;;;;;;;-141.50;100.00;63355.56;5073191;28;20487;-84
2022/06/26 10:53:30;;;;;;;3.20;1.10;;;;;;;-141.50;100.00;63355.56;5078710;28;20132;-82
2022/06/26 10:55:59;;;;;;;0.98;0.88;;;;;;;-141.50;100.00;63355.56;5073462;28;20135;-84
2022/06/26 10:58:31;;;;;;;1.55;1.10;;;;;;;-141.50;100.00;63355.56;5072246;28;20110;-83
2022/06/26 11:01:03;;;;;;;1.73;1.10;;;;;;;-141.50;100.00;63355.56;5074491;28;20361;-82
2022/06/26 11:03:31;;;;;;;1.13;1.02;;;;;;;-141.50;100.00;63355.56;5050619;28;20493;-83
2022/06/26 11:06:08;;;;;;;1.50;1.30;;;;;;;-141.50;100.00;63355.56;5056603;28;20767;-84
2022/06/26 11:08:41;;;;;;;2.63;1.20;;;;;;;-141.50;100.00;63355.56;5061843;28;20062;-82
2022/06/26 11:11:14;;;;;;;1.70;1.20;;;;;;;-141.50;100.00;63355.56;5061740;28;20136;-84
2022/06/26 11:13:55;;;;;;;2.53;1.30;;;;;;;-141.50;100.00;63355.56;5054245;28;20110;-83
2022/06/26 11:16:32;;;;;;;2.67;1.40;;;;;;;-141.50;100.00;63355.56;5053976;28;20049;-83
2022/06/26 11:19:00;;;;;;;1.33;1.17;;;;;;;-141.50;100.00;63355.56;5053282;28;20103;-84
2022/06/26 11:21:27;;;;;;;1.83;1.50;;;;;;;-141.50;100.00;63355.56;5052775;28;20083;-84
2022/06/26 11:23:53;;;;;;;3.05;1.30;;;;;;;-141.50;100.00;63355.56;5071530;28;20143;-84
2022/06/26 11:26:23;;;;;;;2.38;1.10;;;;;;;-141.50;100.00;63355.56;5076626;28;20102;-85